»·PEaware :: N172SP KSNA-KBUR

N172SP :: KSNA-KBUR

FLIGHT INFORMATION

Flight Status: Arrived
Operator: Privately registered:
United States
More flights under this callsign
Pilot: Carson T. (20437)
Aircraft: CESSNA 172 SKYHAWK
(C172)
More flights by this aircraft type
Origin: KSNA John Wayne-Orange Co
United States
Destination: KBUR Bob Hope-Burbank
United States
More flights between these airports :: More routes between these airports
Route: +SLI V23 POPPR SMO125R SMO SMO311R SILEX
File this flight plan on PilotEdge
Remarks: I-3 Rating
Altitude:
(Current/Filed)
4,000ft
Speed:
(Current/Filed)
120kts
Departed: 02-Nov-18 05:48 PM
Arrived: 02-Nov-18 06:26 PM
Distance/Time
Traveled:
40nm/0:38
Distance/Time
To Go:
Arrived

Flight Plot

Page will automatically refresh every two minutes.


Map Options




Map Legend


Flown Route
Filed Route
Departure Airport
Arrival Airport
Navaid (VOR, NDB)
Fix

Horizontal Profiles

Position Reports

Time Latitude Longitude Heading Altitude Ground
Speed
02-Nov-18 17:18 33.676028 -117.871113 40 60ft 0kts
02-Nov-18 17:19 33.676028 -117.871113 40 60ft 0kts
02-Nov-18 17:20 33.676028 -117.871113 40 60ft 0kts
02-Nov-18 17:21 33.676028 -117.871113 40 60ft 0kts
02-Nov-18 17:22 33.676028 -117.871113 40 60ft 0kts
02-Nov-18 17:23 33.676028 -117.871113 40 60ft 0kts
02-Nov-18 17:24 33.676028 -117.871113 40 60ft 0kts
02-Nov-18 17:25 33.676028 -117.871113 40 60ft 0kts
02-Nov-18 17:26 33.676028 -117.871113 40 60ft 0kts
02-Nov-18 17:27 33.676028 -117.871113 40 60ft 0kts
02-Nov-18 17:28 33.676028 -117.871113 40 60ft 0kts
02-Nov-18 17:29 33.676028 -117.871113 40 60ft 0kts
02-Nov-18 17:30 33.676028 -117.871113 40 60ft 0kts
02-Nov-18 17:31 33.676028 -117.871113 40 60ft 0kts
02-Nov-18 17:32 33.676028 -117.871113 40 60ft 0kts
02-Nov-18 17:33 33.676028 -117.871113 40 60ft 0kts
02-Nov-18 17:34 33.676028 -117.871113 40 60ft 0kts
02-Nov-18 17:35 33.676028 -117.871113 40 60ft 0kts
02-Nov-18 17:36 33.676028 -117.871113 40 60ft 0kts
02-Nov-18 17:37 33.676028 -117.871113 40 60ft 0kts
02-Nov-18 17:38 33.676028 -117.871113 40 60ft 0kts
02-Nov-18 17:39 33.676028 -117.871113 40 60ft 0kts
02-Nov-18 17:40 33.676028 -117.871113 40 60ft 0kts
02-Nov-18 17:41 33.676028 -117.871113 40 60ft 0kts
02-Nov-18 17:42 33.676028 -117.871113 40 60ft 0kts
02-Nov-18 17:43 33.676028 -117.871113 40 60ft 0kts
02-Nov-18 17:44 33.676028 -117.871113 40 60ft 0kts
02-Nov-18 17:45 33.676028 -117.871113 40 60ft 0kts
02-Nov-18 17:46 33.676925 -117.869539 25 60ft 18kts
02-Nov-18 17:47 33.681222 -117.866860 68 60ft 11kts
02-Nov-18 17:48 33.681193 -117.866410 112 60ft 0kts
02-Nov-18 17:49 33.681193 -117.866410 112 60ft 0kts
02-Nov-18 17:50 33.681193 -117.866410 112 60ft 0kts
02-Nov-18 17:51 33.678864 -117.866788 207 60ft 55kts
02-Nov-18 17:52 33.658527 -117.881674 237 758ft 95kts
02-Nov-18 17:53 33.642682 -117.906625 232 1612ft 96kts
02-Nov-18 17:54 33.625442 -117.934653 232 2021ft 118kts
02-Nov-18 17:55 33.607148 -117.964493 233 2016ft 106kts
02-Nov-18 17:56 33.589598 -117.993014 233 2015ft 106kts
02-Nov-18 17:57 33.593743 -118.021179 322 2285ft 110kts
02-Nov-18 17:58 33.620062 -118.041521 323 2788ft 115kts
02-Nov-18 17:59 33.647098 -118.062284 323 3286ft 115kts
02-Nov-18 18:00 33.674017 -118.082803 323 3784ft 114kts
02-Nov-18 18:01 33.695649 -118.110071 302 4031ft 118kts
02-Nov-18 18:02 33.714156 -118.141641 302 4033ft 116kts
02-Nov-18 18:03 33.732547 -118.173140 302 4035ft 115kts
02-Nov-18 18:04 33.747102 -118.206863 298 4036ft 114kts
02-Nov-18 18:05 33.765578 -118.237578 303 4040ft 113kts
02-Nov-18 18:06 33.793710 -118.254762 329 4041ft 116kts
02-Nov-18 18:07 33.820811 -118.275284 322 4042ft 115kts
02-Nov-18 18:08 33.844563 -118.300708 315 4044ft 114kts
02-Nov-18 18:09 33.869515 -118.324502 322 4046ft 115kts
02-Nov-18 18:10 33.894181 -118.348634 317 4029ft 116kts
02-Nov-18 18:11 33.919408 -118.372871 318 4028ft 116kts
02-Nov-18 18:12 33.945040 -118.397023 318 4029ft 118kts
02-Nov-18 18:13 33.970659 -118.421858 317 4030ft 119kts
02-Nov-18 18:14 33.997036 -118.446744 318 4038ft 122kts
02-Nov-18 18:15 34.025393 -118.469736 326 4038ft 124kts
02-Nov-18 18:16 34.056539 -118.488525 327 4038ft 125kts
02-Nov-18 18:17 34.086003 -118.510442 323 4038ft 124kts
02-Nov-18 18:18 34.114151 -118.532683 315 4036ft 120kts
02-Nov-18 18:19 34.139339 -118.558671 320 4034ft 119kts
02-Nov-18 18:20 34.165732 -118.582937 323 4033ft 119kts
02-Nov-18 18:21 34.193697 -118.603055 2 4027ft 121kts
02-Nov-18 18:22 34.203824 -118.566702 104 3723ft 132kts
02-Nov-18 18:23 34.199522 -118.523411 90 3234ft 125kts
02-Nov-18 18:24 34.199294 -118.488429 90 2706ft 110kts
02-Nov-18 18:25 34.198813 -118.451305 90 2096ft 103kts
02-Nov-18 18:26 34.198493 -118.418859 90 1572ft 94kts
02-Nov-18 18:27 34.198177 -118.390867 90 1126ft 72kts
02-Nov-18 18:28 34.197916 -118.368661 91 734ft 52kts
02-Nov-18 18:29 34.198585 -118.360397 351 718ft 2kts
02-Nov-18 18:30 34.199581 -118.360881 0 722ft 0kts
02-Nov-18 18:31 34.199581 -118.360881 0 722ft 0kts
02-Nov-18 18:32 34.199581 -118.360881 0 722ft 0kts

Navigation Log

Ident Type
1. KSNA Airport
2. SLI Navaid
3. POPPR Fix
4. SMO Navaid
5. SILEX Fix
6. KBUR Airport